sensor_id;sensor_type;location;lat;lon;timestamp;P1;durP1;ratioP1;P2;durP2;ratioP2
72891;SDS011;61032;50.782;6.818;2023-09-18T00:00:08;7.40;;;3.30;;
72891;SDS011;61032;50.782;6.818;2023-09-18T00:01:11;6.90;;;2.72;;
72891;SDS011;61032;50.782;6.818;2023-09-18T00:02:12;6.57;;;2.80;;
72891;SDS011;61032;50.782;6.818;2023-09-18T00:03:12;6.25;;;3.10;;
72891;SDS011;61032;50.782;6.818;2023-09-18T00:04:12;4.95;;;2.70;;
72891;SDS011;61032;50.782;6.818;2023-09-18T00:05:13;5.80;;;2.97;;
72891;SDS011;61032;50.782;6.818;2023-09-18T00:06:15;7.15;;;2.67;;
72891;SDS011;61032;50.782;6.818;2023-09-18T00:07:16;7.03;;;3.10;;
72891;SDS011;61032;50.782;6.818;2023-09-18T00:08:17;7.68;;;3.20;;
72891;SDS011;61032;50.782;6.818;2023-09-18T00:09:18;5.53;;;3.13;;
72891;SDS011;61032;50.782;6.818;2023-09-18T00:10:18;7.15;;;3.25;;
72891;SDS011;61032;50.782;6.818;2023-09-18T00:11:19;4.30;;;2.65;;
72891;SDS011;61032;50.782;6.818;2023-09-18T00:12:19;4.85;;;2.83;;
72891;SDS011;61032;50.782;6.818;2023-09-18T00:13:19;5.85;;;2.95;;
72891;SDS011;61032;50.782;6.818;2023-09-18T00:14:20;4.50;;;3.00;;
72891;SDS011;61032;50.782;6.818;2023-09-18T00:15:20;7.30;;;3.05;;
72891;SDS011;61032;50.782;6.818;2023-09-18T00:16:21;6.95;;;3.10;;
72891;SDS011;61032;50.782;6.818;2023-09-18T00:17:21;5.47;;;3.35;;
72891;SDS011;61032;50.782;6.818;2023-09-18T00:18:23;5.72;;;2.83;;
72891;SDS011;61032;50.782;6.818;2023-09-18T00:19:24;6.65;;;3.25;;
72891;SDS011;61032;50.782;6.818;2023-09-18T00:20:25;7.90;;;2.95;;
72891;SDS011;61032;50.782;6.818;2023-09-18T00:21:27;6.75;;;2.75;;
72891;SDS011;61032;50.782;6.818;2023-09-18T00:22:27;5.25;;;3.00;;
72891;SDS011;61032;50.782;6.818;2023-09-18T00:23:28;7.25;;;3.47;;
72891;SDS011;61032;50.782;6.818;2023-09-18T00:24:28;6.25;;;3.03;;
72891;SDS011;61032;50.782;6.818;2023-09-18T00:25:29;7.15;;;3.70;;
72891;SDS011;61032;50.782;6.818;2023-09-18T00:26:30;6.75;;;3.80;;
72891;SDS011;61032;50.782;6.818;2023-09-18T00:27:31;6.65;;;3.45;;
72891;SDS011;61032;50.782;6.818;2023-09-18T00:28:32;8.38;;;3.40;;
72891;SDS011;61032;50.782;6.818;2023-09-18T00:29:32;9.23;;;3.28;;
72891;SDS011;61032;50.782;6.818;2023-09-18T00:30:33;5.45;;;3.15;;
72891;SDS011;61032;50.782;6.818;2023-09-18T00:31:33;9.18;;;3.40;;
72891;SDS011;61032;50.782;6.818;2023-09-18T00:32:34;9.15;;;3.13;;
72891;SDS011;61032;50.782;6.818;2023-09-18T00:33:34;5.03;;;3.00;;
72891;SDS011;61032;50.782;6.818;2023-09-18T00:34:34;5.85;;;3.20;;
72891;SDS011;61032;50.782;6.818;2023-09-18T00:35:35;5.32;;;3.08;;
72891;SDS011;61032;50.782;6.818;2023-09-18T00:36:35;5.78;;;3.25;;
72891;SDS011;61032;50.782;6.818;2023-09-18T00:37:35;7.45;;;3.30;;
72891;SDS011;61032;50.782;6.818;2023-09-18T00:38:37;6.93;;;3.08;;
72891;SDS011;61032;50.782;6.818;2023-09-18T00:39:37;5.68;;;3.20;;
72891;SDS011;61032;50.782;6.818;2023-09-18T00:40:38;7.97;;;3.33;;
72891;SDS011;61032;50.782;6.818;2023-09-18T00:41:38;6.72;;;3.67;;
72891;SDS011;61032;50.782;6.818;2023-09-18T00:42:39;7.05;;;3.60;;
72891;SDS011;61032;50.782;6.818;2023-09-18T00:43:39;7.25;;;3.47;;
72891;SDS011;61032;50.782;6.818;2023-09-18T00:44:40;6.15;;;3.72;;
72891;SDS011;61032;50.782;6.818;2023-09-18T00:45:44;6.40;;;3.13;;
72891;SDS011;61032;50.782;6.818;2023-09-18T00:46:46;8.05;;;3.60;;
72891;SDS011;61032;50.782;6.818;2023-09-18T00:47:46;5.88;;;3.60;;
72891;SDS011;61032;50.782;6.818;2023-09-18T00:48:47;7.10;;;3.65;;
72891;SDS011;61032;50.782;6.818;2023-09-18T00:49:48;10.02;;;3.13;;
72891;SDS011;61032;50.782;6.818;2023-09-18T00:50:52;4.80;;;3.05;;
72891;SDS011;61032;50.782;6.818;2023-09-18T00:51:53;7.28;;;3.45;;
72891;SDS011;61032;50.782;6.818;2023-09-18T00:52:54;9.02;;;3.60;;
72891;SDS011;61032;50.782;6.818;2023-09-18T00:53:54;5.90;;;3.13;;
72891;SDS011;61032;50.782;6.818;2023-09-18T00:54:55;5.57;;;3.15;;
72891;SDS011;61032;50.782;6.818;2023-09-18T00:55:56;4.93;;;3.47;;
72891;SDS011;61032;50.782;6.818;2023-09-18T00:56:59;7.43;;;3.42;;
72891;SDS011;61032;50.782;6.818;2023-09-18T00:58:00;8.13;;;3.50;;
72891;SDS011;61032;50.782;6.818;2023-09-18T00:59:01;5.60;;;3.38;;
72891;SDS011;61032;50.782;6.818;2023-09-18T01:00:03;6.85;;;3.53;;
72891;SDS011;61032;50.782;6.818;2023-09-18T01:01:05;7.43;;;3.10;;
72891;SDS011;61032;50.782;6.818;2023-09-18T01:02:06;6.10;;;3.15;;
72891;SDS011;61032;50.782;6.818;2023-09-18T01:03:07;9.20;;;4.05;;
72891;SDS011;61032;50.782;6.818;2023-09-18T01:04:07;8.80;;;3.75;;
72891;SDS011;61032;50.782;6.818;2023-09-18T01:05:07;4.30;;;2.72;;
72891;SDS011;61032;50.782;6.818;2023-09-18T01:06:08;6.95;;;3.20;;
72891;SDS011;61032;50.782;6.818;2023-09-18T01:07:08;6.18;;;3.17;;
72891;SDS011;61032;50.782;6.818;2023-09-18T01:08:08;6.78;;;3.50;;
72891;SDS011;61032;50.782;6.818;2023-09-18T01:09:09;5.70;;;2.90;;
72891;SDS011;61032;50.782;6.818;2023-09-18T01:10:12;8.95;;;3.00;;
72891;SDS011;61032;50.782;6.818;2023-09-18T01:11:24;5.85;;;3.05;;
72891;SDS011;61032;50.782;6.818;2023-09-18T01:13:54;5.20;;;3.05;;
72891;SDS011;61032;50.782;6.818;2023-09-18T01:15:07;8.02;;;2.92;;
72891;SDS011;61032;50.782;6.818;2023-09-18T01:16:17;6.50;;;3.17;;
72891;SDS011;61032;50.782;6.818;2023-09-18T01:17:24;6.68;;;3.13;;
72891;SDS011;61032;50.782;6.818;2023-09-18T01:18:25;5.88;;;3.22;;
72891;SDS011;61032;50.782;6.818;2023-09-18T01:20:37;7.22;;;3.40;;
72891;SDS011;61032;50.782;6.818;2023-09-18T01:21:37;5.32;;;2.90;;
72891;SDS011;61032;50.782;6.818;2023-09-18T01:22:38;6.50;;;3.50;;
72891;SDS011;61032;50.782;6.818;2023-09-18T01:23:38;7.88;;;3.63;;
72891;SDS011;61032;50.782;6.818;2023-09-18T01:24:39;5.47;;;3.20;;
72891;SDS011;61032;50.782;6.818;2023-09-18T01:25:41;6.72;;;3.63;;
72891;SDS011;61032;50.782;6.818;2023-09-18T01:26:41;8.88;;;3.45;;
72891;SDS011;61032;50.782;6.818;2023-09-18T01:27:42;7.40;;;3.70;;
72891;SDS011;61032;50.782;6.818;2023-09-18T01:28:42;6.57;;;3.50;;
72891;SDS011;61032;50.782;6.818;2023-09-18T01:29:43;7.60;;;3.45;;
72891;SDS011;61032;50.782;6.818;2023-09-18T01:30:43;7.28;;;3.80;;
72891;SDS011;61032;50.782;6.818;2023-09-18T01:31:45;5.47;;;3.53;;
72891;SDS011;61032;50.782;6.818;2023-09-18T01:32:48;6.63;;;3.72;;
72891;SDS011;61032;50.782;6.818;2023-09-18T01:33:49;9.30;;;3.88;;
72891;SDS011;61032;50.782;6.818;2023-09-18T01:34:50;3.97;;;3.10;;
72891;SDS011;61032;50.782;6.818;2023-09-18T01:35:53;5.85;;;3.33;;
72891;SDS011;61032;50.782;6.818;2023-09-18T01:36:55;8.80;;;3.10;;
72891;SDS011;61032;50.782;6.818;2023-09-18T01:37:57;6.57;;;3.40;;
72891;SDS011;61032;50.782;6.818;2023-09-18T01:38:59;5.65;;;3.33;;
72891;SDS011;61032;50.782;6.818;2023-09-18T01:40:00;6.80;;;3.30;;
72891;SDS011;61032;50.782;6.818;2023-09-18T01:41:06;7.53;;;3.35;;
72891;SDS011;61032;50.782;6.818;2023-09-18T01:42:06;5.65;;;2.90;;
72891;SDS011;61032;50.782;6.818;2023-09-18T01:43:09;7.43;;;3.67;;
72891;SDS011;61032;50.782;6.818;2023-09-18T01:44:09;6.70;;;3.05;;
72891;SDS011;61032;50.782;6.818;2023-09-18T01:45:10;6.28;;;3.17;;
72891;SDS011;61032;50.782;6.818;2023-09-18T01:46:10;8.10;;;3.88;;
72891;SDS011;61032;50.782;6.818;2023-09-18T01:47:12;5.78;;;2.97;;
72891;SDS011;61032;50.782;6.818;2023-09-18T01:48:15;6.10;;;3.33;;
72891;SDS011;61032;50.782;6.818;2023-09-18T01:49:15;7.78;;;3.35;;
72891;SDS011;61032;50.782;6.818;2023-09-18T01:50:15;4.97;;;2.88;;
72891;SDS011;61032;50.782;6.818;2023-09-18T01:51:16;8.57;;;3.38;;
72891;SDS011;61032;50.782;6.818;2023-09-18T01:52:16;10.80;;;3.35;;
72891;SDS011;61032;50.782;6.818;2023-09-18T01:53:16;5.68;;;3.25;;
72891;SDS011;61032;50.782;6.818;2023-09-18T01:54:17;4.45;;;3.13;;
72891;SDS011;61032;50.782;6.818;2023-09-18T01:55:17;6.45;;;2.90;;
72891;SDS011;61032;50.782;6.818;2023-09-18T01:56:18;6.20;;;3.20;;
72891;SDS011;61032;50.782;6.818;2023-09-18T01:57:18;6.55;;;3.53;;
72891;SDS011;61032;50.782;6.818;2023-09-18T01:58:18;8.55;;;3.40;;
72891;SDS011;61032;50.782;6.818;2023-09-18T01:59:19;7.30;;;3.28;;
72891;SDS011;61032;50.782;6.818;2023-09-18T02:00:19;10.25;;;3.55;;
72891;SDS011;61032;50.782;6.818;2023-09-18T02:01:21;7.53;;;3.60;;
72891;SDS011;61032;50.782;6.818;2023-09-18T02:02:21;7.38;;;3.72;;
72891;SDS011;61032;50.782;6.818;2023-09-18T02:03:21;6.18;;;3.65;;
72891;SDS011;61032;50.782;6.818;2023-09-18T02:04:22;6.43;;;3.70;;
72891;SDS011;61032;50.782;6.818;2023-09-18T02:05:23;6.65;;;3.53;;
72891;SDS011;61032;50.782;6.818;2023-09-18T02:06:23;9.32;;;3.35;;
72891;SDS011;61032;50.782;6.818;2023-09-18T02:07:24;7.78;;;3.05;;
72891;SDS011;61032;50.782;6.818;2023-09-18T02:08:24;7.60;;;3.40;;
72891;SDS011;61032;50.782;6.818;2023-09-18T02:09:24;7.88;;;3.50;;
72891;SDS011;61032;50.782;6.818;2023-09-18T02:10:25;8.63;;;3.13;;
72891;SDS011;61032;50.782;6.818;2023-09-18T02:11:25;8.13;;;2.97;;
72891;SDS011;61032;50.782;6.818;2023-09-18T02:12:25;9.80;;;3.45;;
72891;SDS011;61032;50.782;6.818;2023-09-18T02:13:25;7.47;;;2.95;;
72891;SDS011;61032;50.782;6.818;2023-09-18T02:14:26;6.05;;;2.70;;
72891;SDS011;61032;50.782;6.818;2023-09-18T02:15:26;8.52;;;3.42;;
72891;SDS011;61032;50.782;6.818;2023-09-18T02:16:26;6.70;;;2.95;;
72891;SDS011;61032;50.782;6.818;2023-09-18T02:17:27;4.25;;;2.97;;
72891;SDS011;61032;50.782;6.818;2023-09-18T02:18:27;6.20;;;2.95;;
72891;SDS011;61032;50.782;6.818;2023-09-18T02:19:27;7.13;;;2.88;;
72891;SDS011;61032;50.782;6.818;2023-09-18T02:20:28;7.65;;;2.70;;
72891;SDS011;61032;50.782;6.818;2023-09-18T02:21:28;5.43;;;2.83;;
72891;SDS011;61032;50.782;6.818;2023-09-18T02:22:29;5.00;;;3.00;;
72891;SDS011;61032;50.782;6.818;2023-09-18T02:23:32;8.23;;;2.90;;
72891;SDS011;61032;50.782;6.818;2023-09-18T02:24:32;8.52;;;3.38;;
72891;SDS011;61032;50.782;6.818;2023-09-18T02:25:32;4.43;;;2.85;;
72891;SDS011;61032;50.782;6.818;2023-09-18T02:26:32;6.25;;;3.17;;
72891;SDS011;61032;50.782;6.818;2023-09-18T02:27:33;7.85;;;3.65;;
72891;SDS011;61032;50.782;6.818;2023-09-18T02:28:33;4.43;;;2.60;;
72891;SDS011;61032;50.782;6.818;2023-09-18T02:29:34;6.78;;;2.78;;
72891;SDS011;61032;50.782;6.818;2023-09-18T02:30:34;7.22;;;3.03;;
72891;SDS011;61032;50.782;6.818;2023-09-18T02:31:34;4.22;;;2.45;;
72891;SDS011;61032;50.782;6.818;2023-09-18T02:32:35;5.90;;;2.85;;
72891;SDS011;61032;50.782;6.818;2023-09-18T02:33:36;7.00;;;2.83;;
72891;SDS011;61032;50.782;6.818;2023-09-18T02:34:37;7.28;;;2.40;;
72891;SDS011;61032;50.782;6.818;2023-09-18T02:35:38;7.80;;;2.20;;
72891;SDS011;61032;50.782;6.818;2023-09-18T02:36:38;10.52;;;2.95;;
72891;SDS011;61032;50.782;6.818;2023-09-18T02:37:39;4.65;;;2.58;;
72891;SDS011;61032;50.782;6.818;2023-09-18T02:38:39;5.93;;;2.53;;
72891;SDS011;61032;50.782;6.818;2023-09-18T02:39:40;8.35;;;2.70;;
72891;SDS011;61032;50.782;6.818;2023-09-18T02:40:41;5.65;;;2.33;;
72891;SDS011;61032;50.782;6.818;2023-09-18T02:41:41;7.95;;;2.42;;
72891;SDS011;61032;50.782;6.818;2023-09-18T02:42:41;6.03;;;2.42;;
72891;SDS011;61032;50.782;6.818;2023-09-18T02:43:42;5.53;;;2.47;;
72891;SDS011;61032;50.782;6.818;2023-09-18T02:44:42;3.47;;;1.70;;
72891;SDS011;61032;50.782;6.818;2023-09-18T02:45:43;12.40;;;2.90;;
72891;SDS011;61032;50.782;6.818;2023-09-18T02:46:43;5.43;;;1.85;;
72891;SDS011;61032;50.782;6.818;2023-09-18T02:47:43;6.78;;;2.00;;
72891;SDS011;61032;50.782;6.818;2023-09-18T02:48:44;5.63;;;1.85;;
72891;SDS011;61032;50.782;6.818;2023-09-18T02:49:44;7.43;;;1.90;;
72891;SDS011;61032;50.782;6.818;2023-09-18T02:50:45;11.73;;;2.50;;
72891;SDS011;61032;50.782;6.818;2023-09-18T02:51:45;7.10;;;2.00;;
72891;SDS011;61032;50.782;6.818;2023-09-18T02:52:46;7.22;;;1.90;;
72891;SDS011;61032;50.782;6.818;2023-09-18T02:53:46;8.00;;;2.13;;
72891;SDS011;61032;50.782;6.818;2023-09-18T02:54:47;7.72;;;2.40;;
72891;SDS011;61032;50.782;6.818;2023-09-18T02:55:48;5.80;;;1.90;;
72891;SDS011;61032;50.782;6.818;2023-09-18T02:56:49;6.47;;;2.78;;
72891;SDS011;61032;50.782;6.818;2023-09-18T02:57:49;5.32;;;2.00;;
72891;SDS011;61032;50.782;6.818;2023-09-18T02:58:50;7.90;;;2.25;;
72891;SDS011;61032;50.782;6.818;2023-09-18T02:59:50;9.32;;;2.42;;
72891;SDS011;61032;50.782;6.818;2023-09-18T03:00:50;7.22;;;2.30;;
72891;SDS011;61032;50.782;6.818;2023-09-18T03:01:51;11.50;;;2.28;;
72891;SDS011;61032;50.782;6.818;2023-09-18T03:02:51;5.53;;;2.00;;
72891;SDS011;61032;50.782;6.818;2023-09-18T03:03:51;7.72;;;2.05;;
72891;SDS011;61032;50.782;6.818;2023-09-18T03:04:52;5.05;;;2.00;;
72891;SDS011;61032;50.782;6.818;2023-09-18T03:05:52;10.65;;;2.40;;
72891;SDS011;61032;50.782;6.818;2023-09-18T03:06:53;3.92;;;1.80;;
72891;SDS011;61032;50.782;6.818;2023-09-18T03:07:53;5.25;;;1.90;;
72891;SDS011;61032;50.782;6.818;2023-09-18T03:08:53;7.18;;;1.75;;
72891;SDS011;61032;50.782;6.818;2023-09-18T03:09:54;5.70;;;1.77;;
72891;SDS011;61032;50.782;6.818;2023-09-18T03:10:54;6.65;;;1.90;;
72891;SDS011;61032;50.782;6.818;2023-09-18T03:11:54;5.63;;;2.13;;
72891;SDS011;61032;50.782;6.818;2023-09-18T03:12:55;6.95;;;1.88;;
72891;SDS011;61032;50.782;6.818;2023-09-18T03:13:55;7.60;;;2.00;;
72891;SDS011;61032;50.782;6.818;2023-09-18T03:14:55;5.45;;;2.00;;
72891;SDS011;61032;50.782;6.818;2023-09-18T03:15:56;4.63;;;2.13;;
72891;SDS011;61032;50.782;6.818;2023-09-18T03:16:56;7.82;;;2.28;;
72891;SDS011;61032;50.782;6.818;2023-09-18T03:17:57;3.85;;;2.33;;
72891;SDS011;61032;50.782;6.818;2023-09-18T03:18:58;4.82;;;2.05;;
72891;SDS011;61032;50.782;6.818;2023-09-18T03:19:58;4.20;;;2.25;;
72891;SDS011;61032;50.782;6.818;2023-09-18T03:20:58;5.15;;;1.73;;
72891;SDS011;61032;50.782;6.818;2023-09-18T03:21:59;5.40;;;2.00;;
72891;SDS011;61032;50.782;6.818;2023-09-18T03:23:00;5.30;;;2.42;;
72891;SDS011;61032;50.782;6.818;2023-09-18T03:24:01;6.07;;;2.20;;
72891;SDS011;61032;50.782;6.818;2023-09-18T03:25:03;7.70;;;1.88;;
72891;SDS011;61032;50.782;6.818;2023-09-18T03:26:03;6.72;;;2.10;;
72891;SDS011;61032;50.782;6.818;2023-09-18T03:27:04;6.05;;;2.08;;
72891;SDS011;61032;50.782;6.818;2023-09-18T03:28:04;8.77;;;1.90;;
72891;SDS011;61032;50.782;6.818;2023-09-18T03:29:05;6.53;;;1.88;;
72891;SDS011;61032;50.782;6.818;2023-09-18T03:30:05;4.95;;;2.15;;
72891;SDS011;61032;50.782;6.818;2023-09-18T03:31:06;7.90;;;1.77;;
72891;SDS011;61032;50.782;6.818;2023-09-18T03:32:07;4.10;;;2.03;;
72891;SDS011;61032;50.782;6.818;2023-09-18T03:33:12;4.88;;;1.80;;
72891;SDS011;61032;50.782;6.818;2023-09-18T03:34:12;6.53;;;1.90;;
72891;SDS011;61032;50.782;6.818;2023-09-18T03:35:13;7.88;;;1.90;;
72891;SDS011;61032;50.782;6.818;2023-09-18T03:36:23;3.78;;;1.90;;
72891;SDS011;61032;50.782;6.818;2023-09-18T03:37:23;4.13;;;1.70;;
72891;SDS011;61032;50.782;6.818;2023-09-18T03:38:24;7.90;;;2.35;;
72891;SDS011;61032;50.782;6.818;2023-09-18T03:39:24;3.42;;;1.60;;
72891;SDS011;61032;50.782;6.818;2023-09-18T03:40:25;5.30;;;1.80;;
72891;SDS011;61032;50.782;6.818;2023-09-18T03:41:25;6.70;;;1.60;;
72891;SDS011;61032;50.782;6.818;2023-09-18T03:42:26;5.40;;;1.50;;
72891;SDS011;61032;50.782;6.818;2023-09-18T03:43:26;5.95;;;2.10;;
72891;SDS011;61032;50.782;6.818;2023-09-18T03:44:26;4.65;;;1.70;;
72891;SDS011;61032;50.782;6.818;2023-09-18T03:45:27;4.20;;;1.70;;
72891;SDS011;61032;50.782;6.818;2023-09-18T03:46:27;5.88;;;2.10;;
72891;SDS011;61032;50.782;6.818;2023-09-18T03:47:27;3.92;;;1.70;;
72891;SDS011;61032;50.782;6.818;2023-09-18T03:48:28;8.85;;;2.25;;
72891;SDS011;61032;50.782;6.818;2023-09-18T03:49:30;5.93;;;1.63;;
72891;SDS011;61032;50.782;6.818;2023-09-18T03:50:31;5.28;;;1.48;;
72891;SDS011;61032;50.782;6.818;2023-09-18T03:51:31;8.63;;;2.45;;
72891;SDS011;61032;50.782;6.818;2023-09-18T03:52:31;4.80;;;1.83;;
72891;SDS011;61032;50.782;6.818;2023-09-18T03:53:32;10.15;;;2.05;;
72891;SDS011;61032;50.782;6.818;2023-09-18T03:54:33;4.35;;;1.63;;
72891;SDS011;61032;50.782;6.818;2023-09-18T03:55:34;5.78;;;2.33;;
72891;SDS011;61032;50.782;6.818;2023-09-18T03:56:34;4.65;;;1.83;;
72891;SDS011;61032;50.782;6.818;2023-09-18T03:57:34;6.80;;;1.80;;
72891;SDS011;61032;50.782;6.818;2023-09-18T03:58:36;6.43;;;1.67;;
72891;SDS011;61032;50.782;6.818;2023-09-18T03:59:37;7.82;;;2.00;;
72891;SDS011;61032;50.782;6.818;2023-09-18T04:00:37;3.85;;;2.22;;
72891;SDS011;61032;50.782;6.818;2023-09-18T04:01:37;8.30;;;2.17;;
72891;SDS011;61032;50.782;6.818;2023-09-18T04:02:38;5.30;;;1.80;;
72891;SDS011;61032;50.782;6.818;2023-09-18T04:03:38;7.43;;;1.70;;
72891;SDS011;61032;50.782;6.818;2023-09-18T04:04:38;8.23;;;2.55;;
72891;SDS011;61032;50.782;6.818;2023-09-18T04:05:39;10.02;;;2.67;;
72891;SDS011;61032;50.782;6.818;2023-09-18T04:06:40;5.07;;;1.83;;
72891;SDS011;61032;50.782;6.818;2023-09-18T04:07:41;8.32;;;2.35;;
72891;SDS011;61032;50.782;6.818;2023-09-18T04:08:46;5.05;;;1.90;;
72891;SDS011;61032;50.782;6.818;2023-09-18T04:09:46;7.47;;;2.65;;
72891;SDS011;61032;50.782;6.818;2023-09-18T04:10:46;10.27;;;2.08;;
72891;SDS011;61032;50.782;6.818;2023-09-18T04:11:48;8.63;;;2.40;;
72891;SDS011;61032;50.782;6.818;2023-09-18T04:12:49;8.68;;;2.50;;
72891;SDS011;61032;50.782;6.818;2023-09-18T04:13:50;9.55;;;2.30;;
72891;SDS011;61032;50.782;6.818;2023-09-18T04:14:51;5.88;;;2.22;;
72891;SDS011;61032;50.782;6.818;2023-09-18T04:15:51;7.68;;;1.90;;
72891;SDS011;61032;50.782;6.818;2023-09-18T04:16:56;7.45;;;2.40;;
72891;SDS011;61032;50.782;6.818;2023-09-18T04:17:57;8.90;;;2.30;;
72891;SDS011;61032;50.782;6.818;2023-09-18T04:18:57;9.25;;;2.20;;
72891;SDS011;61032;50.782;6.818;2023-09-18T04:19:57;4.45;;;2.35;;
72891;SDS011;61032;50.782;6.818;2023-09-18T04:20:58;9.93;;;2.60;;
72891;SDS011;61032;50.782;6.818;2023-09-18T04:21:58;6.47;;;1.80;;
72891;SDS011;61032;50.782;6.818;2023-09-18T04:24:19;8.10;;;2.28;;
72891;SDS011;61032;50.782;6.818;2023-09-18T04:25:20;8.45;;;2.15;;
72891;SDS011;61032;50.782;6.818;2023-09-18T04:26:22;6.25;;;2.17;;
72891;SDS011;61032;50.782;6.818;2023-09-18T04:27:23;6.75;;;2.15;;
72891;SDS011;61032;50.782;6.818;2023-09-18T04:28:23;5.88;;;2.05;;
72891;SDS011;61032;50.782;6.818;2023-09-18T04:29:24;6.78;;;2.40;;
72891;SDS011;61032;50.782;6.818;2023-09-18T04:30:24;5.82;;;2.22;;
72891;SDS011;61032;50.782;6.818;2023-09-18T04:31:24;4.95;;;2.03;;
72891;SDS011;61032;50.782;6.818;2023-09-18T04:32:24;7.00;;;2.20;;
72891;SDS011;61032;50.782;6.818;2023-09-18T04:33:25;7.82;;;1.90;;
72891;SDS011;61032;50.782;6.818;2023-09-18T04:34:28;6.18;;;2.00;;
72891;SDS011;61032;50.782;6.818;2023-09-18T04:35:28;6.30;;;2.50;;
72891;SDS011;61032;50.782;6.818;2023-09-18T04:36:31;4.15;;;1.85;;
72891;SDS011;61032;50.782;6.818;2023-09-18T04:37:35;5.72;;;2.25;;
72891;SDS011;61032;50.782;6.818;2023-09-18T04:38:37;5.20;;;2.47;;
72891;SDS011;61032;50.782;6.818;2023-09-18T04:39:37;4.07;;;2.10;;
72891;SDS011;61032;50.782;6.818;2023-09-18T04:40:38;7.18;;;2.15;;
72891;SDS011;61032;50.782;6.818;2023-09-18T04:41:38;7.35;;;2.75;;
72891;SDS011;61032;50.782;6.818;2023-09-18T04:42:39;6.25;;;2.05;;
72891;SDS011;61032;50.782;6.818;2023-09-18T04:43:42;3.92;;;1.85;;
72891;SDS011;61032;50.782;6.818;2023-09-18T04:44:43;7.63;;;1.98;;
72891;SDS011;61032;50.782;6.818;2023-09-18T04:45:44;6.57;;;1.73;;
72891;SDS011;61032;50.782;6.818;2023-09-18T04:46:44;5.57;;;2.00;;
72891;SDS011;61032;50.782;6.818;2023-09-18T04:47:45;5.30;;;1.88;;
72891;SDS011;61032;50.782;6.818;2023-09-18T04:48:45;4.93;;;1.70;;
72891;SDS011;61032;50.782;6.818;2023-09-18T04:49:45;3.38;;;1.65;;
72891;SDS011;61032;50.782;6.818;2023-09-18T04:51:48;7.35;;;2.10;;
72891;SDS011;61032;50.782;6.818;2023-09-18T04:52:48;3.92;;;1.60;;
72891;SDS011;61032;50.782;6.818;2023-09-18T04:54:52;9.63;;;2.42;;
72891;SDS011;61032;50.782;6.818;2023-09-18T04:55:52;4.50;;;1.80;;
72891;SDS011;61032;50.782;6.818;2023-09-18T04:56:52;4.90;;;1.65;;
72891;SDS011;61032;50.782;6.818;2023-09-18T04:57:54;3.55;;;1.60;;
72891;SDS011;61032;50.782;6.818;2023-09-18T04:58:58;4.88;;;1.58;;
72891;SDS011;61032;50.782;6.818;2023-09-18T04:59:59;5.75;;;1.77;;
72891;SDS011;61032;50.782;6.818;2023-09-18T05:00:59;5.50;;;1.35;;
72891;SDS011;61032;50.782;6.818;2023-09-18T05:02:02;7.18;;;2.15;;
72891;SDS011;61032;50.782;6.818;2023-09-18T05:03:04;7.00;;;1.95;;
72891;SDS011;61032;50.782;6.818;2023-09-18T05:04:06;5.95;;;1.90;;
72891;SDS011;61032;50.782;6.818;2023-09-18T05:05:06;11.07;;;2.10;;
72891;SDS011;61032;50.782;6.818;2023-09-18T05:06:08;6.05;;;2.08;;
72891;SDS011;61032;50.782;6.818;2023-09-18T05:07:09;4.65;;;1.65;;
72891;SDS011;61032;50.782;6.818;2023-09-18T05:08:09;4.97;;;2.00;;
72891;SDS011;61032;50.782;6.818;2023-09-18T05:09:10;4.70;;;1.60;;
72891;SDS011;61032;50.782;6.818;2023-09-18T05:10:10;3.97;;;1.63;;
72891;SDS011;61032;50.782;6.818;2023-09-18T05:11:11;4.20;;;1.48;;
72891;SDS011;61032;50.782;6.818;2023-09-18T05:12:11;5.68;;;1.40;;
72891;SDS011;61032;50.782;6.818;2023-09-18T05:13:13;7.13;;;1.73;;
72891;SDS011;61032;50.782;6.818;2023-09-18T05:14:14;4.70;;;1.27;;
72891;SDS011;61032;50.782;6.818;2023-09-18T05:16:16;4.03;;;1.20;;
72891;SDS011;61032;50.782;6.818;2023-09-18T05:17:17;4.53;;;2.05;;
72891;SDS011;61032;50.782;6.818;2023-09-18T05:18:17;4.32;;;1.80;;
72891;SDS011;61032;50.782;6.818;2023-09-18T05:19:18;5.50;;;1.77;;
72891;SDS011;61032;50.782;6.818;2023-09-18T05:20:18;5.70;;;1.40;;
72891;SDS011;61032;50.782;6.818;2023-09-18T05:21:19;4.03;;;1.50;;
72891;SDS011;61032;50.782;6.818;2023-09-18T05:22:24;3.15;;;1.65;;
72891;SDS011;61032;50.782;6.818;2023-09-18T05:23:24;5.55;;;1.50;;
72891;SDS011;61032;50.782;6.818;2023-09-18T05:24:25;4.35;;;1.60;;
72891;SDS011;61032;50.782;6.818;2023-09-18T05:25:27;4.60;;;1.60;;
72891;SDS011;61032;50.782;6.818;2023-09-18T05:26:31;4.88;;;1.38;;
72891;SDS011;61032;50.782;6.818;2023-09-18T05:27:32;4.20;;;1.48;;
72891;SDS011;61032;50.782;6.818;2023-09-18T05:28:32;5.80;;;1.35;;
72891;SDS011;61032;50.782;6.818;2023-09-18T05:29:33;5.50;;;1.55;;
72891;SDS011;61032;50.782;6.818;2023-09-18T05:30:36;5.28;;;1.60;;
72891;SDS011;61032;50.782;6.818;2023-09-18T05:31:38;4.70;;;1.50;;
72891;SDS011;61032;50.782;6.818;2023-09-18T05:32:39;5.60;;;1.60;;
72891;SDS011;61032;50.782;6.818;2023-09-18T05:33:39;4.72;;;1.50;;
72891;SDS011;61032;50.782;6.818;2023-09-18T05:34:39;4.57;;;1.90;;
72891;SDS011;61032;50.782;6.818;2023-09-18T05:35:43;5.18;;;1.65;;
72891;SDS011;61032;50.782;6.818;2023-09-18T05:36:44;5.35;;;1.67;;
72891;SDS011;61032;50.782;6.818;2023-09-18T05:37:45;3.45;;;1.63;;
72891;SDS011;61032;50.782;6.818;2023-09-18T05:38:45;4.47;;;1.30;;
72891;SDS011;61032;50.782;6.818;2023-09-18T05:39:45;6.88;;;1.52;;
72891;SDS011;61032;50.782;6.818;2023-09-18T05:40:46;8.18;;;1.50;;
72891;SDS011;61032;50.782;6.818;2023-09-18T05:41:46;4.07;;;1.00;;
72891;SDS011;61032;50.782;6.818;2023-09-18T05:42:47;3.55;;;1.20;;
72891;SDS011;61032;50.782;6.818;2023-09-18T05:43:47;8.18;;;1.40;;
72891;SDS011;61032;50.782;6.818;2023-09-18T05:44:47;4.22;;;1.30;;
72891;SDS011;61032;50.782;6.818;2023-09-18T05:45:47;3.72;;;1.20;;
72891;SDS011;61032;50.782;6.818;2023-09-18T05:46:49;3.90;;;1.02;;
72891;SDS011;61032;50.782;6.818;2023-09-18T05:47:50;2.85;;;0.95;;
72891;SDS011;61032;50.782;6.818;2023-09-18T05:48:50;4.50;;;1.20;;
72891;SDS011;61032;50.782;6.818;2023-09-18T05:49:50;2.50;;;1.02;;
72891;SDS011;61032;50.782;6.818;2023-09-18T05:50:51;5.57;;;1.33;;
72891;SDS011;61032;50.782;6.818;2023-09-18T05:51:52;5.55;;;1.45;;
72891;SDS011;61032;50.782;6.818;2023-09-18T05:52:53;2.90;;;1.00;;
72891;SDS011;61032;50.782;6.818;2023-09-18T05:53:53;3.45;;;1.15;;
72891;SDS011;61032;50.782;6.818;2023-09-18T05:54:54;4.75;;;1.35;;
72891;SDS011;61032;50.782;6.818;2023-09-18T05:55:54;2.90;;;1.20;;
72891;SDS011;61032;50.782;6.818;2023-09-18T05:56:56;1.67;;;0.77;;
72891;SDS011;61032;50.782;6.818;2023-09-18T05:57:57;3.13;;;1.10;;
72891;SDS011;61032;50.782;6.818;2023-09-18T05:58:57;7.03;;;2.05;;
72891;SDS011;61032;50.782;6.818;2023-09-18T05:59:57;2.65;;;0.80;;
72891;SDS011;61032;50.782;6.818;2023-09-18T06:00:58;6.45;;;1.15;;
72891;SDS011;61032;50.782;6.818;2023-09-18T06:02:00;2.38;;;0.80;;
72891;SDS011;61032;50.782;6.818;2023-09-18T06:03:00;4.93;;;0.93;;
72891;SDS011;61032;50.782;6.818;2023-09-18T06:04:01;2.65;;;0.80;;
72891;SDS011;61032;50.782;6.818;2023-09-18T06:05:03;2.22;;;1.02;;
72891;SDS011;61032;50.782;6.818;2023-09-18T06:06:05;3.30;;;1.10;;
72891;SDS011;61032;50.782;6.818;2023-09-18T06:07:05;3.35;;;0.90;;
72891;SDS011;61032;50.782;6.818;2023-09-18T06:08:06;3.45;;;0.77;;
72891;SDS011;61032;50.782;6.818;2023-09-18T06:09:06;1.83;;;0.70;;
72891;SDS011;61032;50.782;6.818;2023-09-18T06:10:07;3.40;;;1.13;;
72891;SDS011;61032;50.782;6.818;2023-09-18T06:11:08;2.58;;;0.80;;
72891;SDS011;61032;50.782;6.818;2023-09-18T06:12:08;3.90;;;1.10;;
72891;SDS011;61032;50.782;6.818;2023-09-18T06:13:09;5.80;;;1.25;;
72891;SDS011;61032;50.782;6.818;2023-09-18T06:14:10;3.08;;;1.05;;